sensor_id;sensor_type;location;lat;lon;timestamp;P1;durP1;ratioP1;P2;durP2;ratioP2
41101;SDS011;26845;50.190;19.178;2024-02-26T00:00:09;13.50;;;7.20;;
41101;SDS011;26845;50.190;19.178;2024-02-26T00:02:49;14.20;;;7.00;;
41101;SDS011;26845;50.190;19.178;2024-02-26T00:05:28;18.80;;;8.00;;
41101;SDS011;26845;50.190;19.178;2024-02-26T00:08:08;15.40;;;8.40;;
41101;SDS011;26845;50.190;19.178;2024-02-26T00:10:48;19.00;;;9.00;;
41101;SDS011;26845;50.190;19.178;2024-02-26T00:13:28;23.70;;;11.80;;
41101;SDS011;26845;50.190;19.178;2024-02-26T00:16:08;34.90;;;16.00;;
41101;SDS011;26845;50.190;19.178;2024-02-26T00:18:48;34.30;;;16.70;;
41101;SDS011;26845;50.190;19.178;2024-02-26T00:21:28;51.00;;;24.10;;
41101;SDS011;26845;50.190;19.178;2024-02-26T00:24:08;43.60;;;21.60;;
41101;SDS011;26845;50.190;19.178;2024-02-26T00:26:48;44.40;;;20.50;;
41101;SDS011;26845;50.190;19.178;2024-02-26T00:29:28;67.90;;;29.00;;
41101;SDS011;26845;50.190;19.178;2024-02-26T00:32:08;98.10;;;45.00;;
41101;SDS011;26845;50.190;19.178;2024-02-26T00:34:48;73.50;;;34.80;;
41101;SDS011;26845;50.190;19.178;2024-02-26T00:37:28;81.30;;;38.30;;
41101;SDS011;26845;50.190;19.178;2024-02-26T00:40:08;66.50;;;31.80;;
41101;SDS011;26845;50.190;19.178;2024-02-26T00:42:48;147.50;;;60.70;;
41101;SDS011;26845;50.190;19.178;2024-02-26T00:45:28;69.60;;;32.00;;
41101;SDS011;26845;50.190;19.178;2024-02-26T00:48:08;98.30;;;42.70;;
41101;SDS011;26845;50.190;19.178;2024-02-26T00:50:48;107.20;;;45.90;;
41101;SDS011;26845;50.190;19.178;2024-02-26T00:53:28;63.60;;;28.70;;
41101;SDS011;26845;50.190;19.178;2024-02-26T00:56:08;48.60;;;24.00;;
41101;SDS011;26845;50.190;19.178;2024-02-26T00:58:48;58.00;;;26.50;;
41101;SDS011;26845;50.190;19.178;2024-02-26T01:01:28;58.60;;;26.70;;
41101;SDS011;26845;50.190;19.178;2024-02-26T01:04:08;61.60;;;27.80;;
41101;SDS011;26845;50.190;19.178;2024-02-26T01:06:48;56.50;;;27.80;;
41101;SDS011;26845;50.190;19.178;2024-02-26T01:09:29;65.50;;;27.20;;
41101;SDS011;26845;50.190;19.178;2024-02-26T01:12:09;80.70;;;36.60;;
41101;SDS011;26845;50.190;19.178;2024-02-26T01:14:49;74.10;;;31.50;;
41101;SDS011;26845;50.190;19.178;2024-02-26T01:17:29;78.50;;;36.00;;
41101;SDS011;26845;50.190;19.178;2024-02-26T01:20:10;75.10;;;35.50;;
41101;SDS011;26845;50.190;19.178;2024-02-26T01:22:49;86.90;;;40.30;;
41101;SDS011;26845;50.190;19.178;2024-02-26T01:25:29;101.80;;;44.90;;
41101;SDS011;26845;50.190;19.178;2024-02-26T01:28:09;79.50;;;39.40;;
41101;SDS011;26845;50.190;19.178;2024-02-26T01:30:49;84.90;;;38.30;;
41101;SDS011;26845;50.190;19.178;2024-02-26T01:33:29;87.20;;;39.20;;
41101;SDS011;26845;50.190;19.178;2024-02-26T01:39:03;94.40;;;43.20;;
41101;SDS011;26845;50.190;19.178;2024-02-26T01:41:43;95.50;;;45.10;;
41101;SDS011;26845;50.190;19.178;2024-02-26T01:44:23;86.20;;;38.30;;
41101;SDS011;26845;50.190;19.178;2024-02-26T01:47:04;87.80;;;40.10;;
41101;SDS011;26845;50.190;19.178;2024-02-26T01:49:43;86.50;;;39.30;;
41101;SDS011;26845;50.190;19.178;2024-02-26T01:52:23;113.80;;;53.30;;
41101;SDS011;26845;50.190;19.178;2024-02-26T01:55:03;109.70;;;49.30;;
41101;SDS011;26845;50.190;19.178;2024-02-26T01:57:44;98.30;;;46.10;;
41101;SDS011;26845;50.190;19.178;2024-02-26T02:00:23;75.00;;;38.20;;
41101;SDS011;26845;50.190;19.178;2024-02-26T02:03:03;73.10;;;35.30;;
41101;SDS011;26845;50.190;19.178;2024-02-26T02:05:43;59.80;;;26.90;;
41101;SDS011;26845;50.190;19.178;2024-02-26T02:08:23;70.50;;;30.20;;
41101;SDS011;26845;50.190;19.178;2024-02-26T02:11:03;43.00;;;18.80;;
41101;SDS011;26845;50.190;19.178;2024-02-26T02:13:43;67.60;;;30.60;;
41101;SDS011;26845;50.190;19.178;2024-02-26T02:16:23;71.70;;;31.80;;
41101;SDS011;26845;50.190;19.178;2024-02-26T02:19:03;75.80;;;35.80;;
41101;SDS011;26845;50.190;19.178;2024-02-26T02:21:43;74.50;;;32.50;;
41101;SDS011;26845;50.190;19.178;2024-02-26T02:24:23;55.30;;;27.10;;
41101;SDS011;26845;50.190;19.178;2024-02-26T02:27:03;69.10;;;31.20;;
41101;SDS011;26845;50.190;19.178;2024-02-26T02:29:43;60.60;;;28.00;;
41101;SDS011;26845;50.190;19.178;2024-02-26T02:32:24;60.70;;;29.40;;
41101;SDS011;26845;50.190;19.178;2024-02-26T02:35:03;73.20;;;32.40;;
41101;SDS011;26845;50.190;19.178;2024-02-26T02:37:43;64.00;;;30.20;;
41101;SDS011;26845;50.190;19.178;2024-02-26T02:40:23;65.10;;;29.30;;
41101;SDS011;26845;50.190;19.178;2024-02-26T02:43:03;64.70;;;29.60;;
41101;SDS011;26845;50.190;19.178;2024-02-26T02:45:43;77.90;;;33.20;;
41101;SDS011;26845;50.190;19.178;2024-02-26T02:48:23;76.20;;;33.00;;
41101;SDS011;26845;50.190;19.178;2024-02-26T02:51:04;51.40;;;24.20;;
41101;SDS011;26845;50.190;19.178;2024-02-26T02:53:43;49.40;;;22.50;;
41101;SDS011;26845;50.190;19.178;2024-02-26T02:56:23;54.10;;;23.30;;
41101;SDS011;26845;50.190;19.178;2024-02-26T02:59:03;32.90;;;14.20;;
41101;SDS011;26845;50.190;19.178;2024-02-26T03:01:43;25.60;;;14.20;;
41101;SDS011;26845;50.190;19.178;2024-02-26T03:04:23;42.00;;;19.00;;
41101;SDS011;26845;50.190;19.178;2024-02-26T03:07:03;44.30;;;20.80;;
41101;SDS011;26845;50.190;19.178;2024-02-26T03:09:43;57.90;;;25.70;;
41101;SDS011;26845;50.190;19.178;2024-02-26T03:12:23;49.90;;;23.60;;
41101;SDS011;26845;50.190;19.178;2024-02-26T03:15:03;52.30;;;25.50;;
41101;SDS011;26845;50.190;19.178;2024-02-26T03:17:43;61.40;;;28.50;;
41101;SDS011;26845;50.190;19.178;2024-02-26T03:20:23;47.90;;;24.90;;
41101;SDS011;26845;50.190;19.178;2024-02-26T03:23:03;49.10;;;22.90;;
41101;SDS011;26845;50.190;19.178;2024-02-26T03:25:44;54.30;;;26.70;;
41101;SDS011;26845;50.190;19.178;2024-02-26T03:28:23;49.30;;;24.20;;
41101;SDS011;26845;50.190;19.178;2024-02-26T03:31:03;51.50;;;24.40;;
41101;SDS011;26845;50.190;19.178;2024-02-26T03:33:43;44.90;;;20.80;;
41101;SDS011;26845;50.190;19.178;2024-02-26T03:36:23;58.40;;;24.50;;
41101;SDS011;26845;50.190;19.178;2024-02-26T03:39:03;49.20;;;23.10;;
41101;SDS011;26845;50.190;19.178;2024-02-26T03:41:43;50.40;;;25.50;;
41101;SDS011;26845;50.190;19.178;2024-02-26T03:44:23;52.20;;;24.30;;
41101;SDS011;26845;50.190;19.178;2024-02-26T03:47:03;55.10;;;24.90;;
41101;SDS011;26845;50.190;19.178;2024-02-26T03:49:43;53.20;;;25.40;;
41101;SDS011;26845;50.190;19.178;2024-02-26T03:52:23;57.20;;;24.80;;
41101;SDS011;26845;50.190;19.178;2024-02-26T03:55:03;45.50;;;23.70;;
41101;SDS011;26845;50.190;19.178;2024-02-26T03:57:43;46.10;;;23.70;;
41101;SDS011;26845;50.190;19.178;2024-02-26T04:00:23;57.60;;;26.80;;
41101;SDS011;26845;50.190;19.178;2024-02-26T04:03:03;55.10;;;25.70;;
41101;SDS011;26845;50.190;19.178;2024-02-26T04:05:43;51.20;;;25.60;;
41101;SDS011;26845;50.190;19.178;2024-02-26T04:08:23;55.50;;;26.30;;
41101;SDS011;26845;50.190;19.178;2024-02-26T04:11:03;58.60;;;27.80;;
41101;SDS011;26845;50.190;19.178;2024-02-26T04:13:44;56.90;;;26.60;;
41101;SDS011;26845;50.190;19.178;2024-02-26T04:16:23;70.80;;;32.20;;
41101;SDS011;26845;50.190;19.178;2024-02-26T04:19:03;73.80;;;35.60;;
41101;SDS011;26845;50.190;19.178;2024-02-26T04:21:43;68.80;;;31.50;;
41101;SDS011;26845;50.190;19.178;2024-02-26T04:24:23;64.30;;;30.70;;
41101;SDS011;26845;50.190;19.178;2024-02-26T04:27:03;68.40;;;30.10;;
41101;SDS011;26845;50.190;19.178;2024-02-26T04:29:43;64.80;;;30.10;;
41101;SDS011;26845;50.190;19.178;2024-02-26T04:32:23;67.40;;;31.30;;
41101;SDS011;26845;50.190;19.178;2024-02-26T04:35:03;61.60;;;31.00;;
41101;SDS011;26845;50.190;19.178;2024-02-26T04:37:43;64.60;;;29.50;;
41101;SDS011;26845;50.190;19.178;2024-02-26T04:40:23;64.30;;;30.30;;
41101;SDS011;26845;50.190;19.178;2024-02-26T04:43:03;67.60;;;31.40;;
41101;SDS011;26845;50.190;19.178;2024-02-26T04:45:43;67.30;;;32.00;;
41101;SDS011;26845;50.190;19.178;2024-02-26T04:48:23;63.60;;;31.00;;
41101;SDS011;26845;50.190;19.178;2024-02-26T04:51:03;63.70;;;30.80;;
41101;SDS011;26845;50.190;19.178;2024-02-26T04:53:43;64.60;;;31.20;;
41101;SDS011;26845;50.190;19.178;2024-02-26T04:56:24;67.20;;;31.00;;
41101;SDS011;26845;50.190;19.178;2024-02-26T04:59:03;66.30;;;30.50;;
41101;SDS011;26845;50.190;19.178;2024-02-26T05:01:43;68.00;;;31.10;;
41101;SDS011;26845;50.190;19.178;2024-02-26T05:04:23;63.00;;;30.20;;
41101;SDS011;26845;50.190;19.178;2024-02-26T05:07:03;57.60;;;30.90;;
41101;SDS011;26845;50.190;19.178;2024-02-26T05:09:44;61.10;;;28.40;;
41101;SDS011;26845;50.190;19.178;2024-02-26T05:12:23;59.80;;;29.00;;
41101;SDS011;26845;50.190;19.178;2024-02-26T05:15:03;62.70;;;31.60;;
41101;SDS011;26845;50.190;19.178;2024-02-26T05:17:44;59.10;;;30.20;;
41101;SDS011;26845;50.190;19.178;2024-02-26T05:20:23;63.10;;;29.20;;
41101;SDS011;26845;50.190;19.178;2024-02-26T05:23:03;59.40;;;28.20;;
41101;SDS011;26845;50.190;19.178;2024-02-26T05:25:43;57.00;;;28.30;;
41101;SDS011;26845;50.190;19.178;2024-02-26T05:28:23;55.60;;;27.70;;
41101;SDS011;26845;50.190;19.178;2024-02-26T05:31:03;56.00;;;27.80;;
41101;SDS011;26845;50.190;19.178;2024-02-26T05:33:43;57.20;;;26.10;;
41101;SDS011;26845;50.190;19.178;2024-02-26T05:36:23;59.10;;;29.20;;
41101;SDS011;26845;50.190;19.178;2024-02-26T05:39:03;60.60;;;32.00;;
41101;SDS011;26845;50.190;19.178;2024-02-26T05:41:43;64.40;;;31.40;;
41101;SDS011;26845;50.190;19.178;2024-02-26T05:44:25;60.70;;;30.00;;
41101;SDS011;26845;50.190;19.178;2024-02-26T05:47:03;61.90;;;30.00;;
41101;SDS011;26845;50.190;19.178;2024-02-26T05:49:43;62.10;;;30.40;;
41101;SDS011;26845;50.190;19.178;2024-02-26T05:52:23;77.20;;;37.40;;
41101;SDS011;26845;50.190;19.178;2024-02-26T05:55:03;84.20;;;41.50;;
41101;SDS011;26845;50.190;19.178;2024-02-26T05:57:43;78.10;;;36.30;;
41101;SDS011;26845;50.190;19.178;2024-02-26T06:00:23;75.20;;;35.70;;
41101;SDS011;26845;50.190;19.178;2024-02-26T06:03:03;76.80;;;37.90;;
41101;SDS011;26845;50.190;19.178;2024-02-26T06:05:43;90.10;;;43.70;;
41101;SDS011;26845;50.190;19.178;2024-02-26T06:08:23;82.70;;;40.30;;
41101;SDS011;26845;50.190;19.178;2024-02-26T06:11:06;87.80;;;39.90;;
41101;SDS011;26845;50.190;19.178;2024-02-26T06:13:46;80.50;;;38.70;;
41101;SDS011;26845;50.190;19.178;2024-02-26T06:16:26;80.60;;;40.20;;
41101;SDS011;26845;50.190;19.178;2024-02-26T06:19:06;95.70;;;48.00;;
41101;SDS011;26845;50.190;19.178;2024-02-26T06:21:46;95.50;;;43.10;;
41101;SDS011;26845;50.190;19.178;2024-02-26T06:24:26;81.00;;;40.40;;
41101;SDS011;26845;50.190;19.178;2024-02-26T06:27:06;82.40;;;38.30;;
41101;SDS011;26845;50.190;19.178;2024-02-26T06:29:46;79.50;;;36.50;;
41101;SDS011;26845;50.190;19.178;2024-02-26T06:32:26;67.40;;;34.00;;
41101;SDS011;26845;50.190;19.178;2024-02-26T06:35:06;61.90;;;33.60;;
41101;SDS011;26845;50.190;19.178;2024-02-26T06:37:46;62.30;;;30.10;;
41101;SDS011;26845;50.190;19.178;2024-02-26T06:40:26;58.80;;;27.50;;
41101;SDS011;26845;50.190;19.178;2024-02-26T06:43:06;69.00;;;33.40;;
41101;SDS011;26845;50.190;19.178;2024-02-26T06:45:46;71.80;;;33.60;;
41101;SDS011;26845;50.190;19.178;2024-02-26T06:48:26;60.50;;;32.00;;
41101;SDS011;26845;50.190;19.178;2024-02-26T06:51:06;55.70;;;29.20;;
41101;SDS011;26845;50.190;19.178;2024-02-26T06:53:46;55.40;;;29.10;;
41101;SDS011;26845;50.190;19.178;2024-02-26T06:56:26;62.50;;;27.70;;
41101;SDS011;26845;50.190;19.178;2024-02-26T06:59:06;59.70;;;28.60;;
41101;SDS011;26845;50.190;19.178;2024-02-26T07:01:46;55.40;;;27.90;;
41101;SDS011;26845;50.190;19.178;2024-02-26T07:04:26;57.90;;;28.40;;
41101;SDS011;26845;50.190;19.178;2024-02-26T07:07:07;56.70;;;28.50;;
41101;SDS011;26845;50.190;19.178;2024-02-26T07:09:46;50.70;;;25.30;;
41101;SDS011;26845;50.190;19.178;2024-02-26T07:12:26;49.80;;;26.60;;
41101;SDS011;26845;50.190;19.178;2024-02-26T07:15:06;49.90;;;23.40;;
41101;SDS011;26845;50.190;19.178;2024-02-26T07:17:46;51.20;;;26.40;;
41101;SDS011;26845;50.190;19.178;2024-02-26T07:20:26;57.30;;;26.10;;
41101;SDS011;26845;50.190;19.178;2024-02-26T07:23:06;55.10;;;27.90;;
41101;SDS011;26845;50.190;19.178;2024-02-26T07:25:46;51.10;;;25.90;;
41101;SDS011;26845;50.190;19.178;2024-02-26T07:28:26;55.80;;;26.10;;
41101;SDS011;26845;50.190;19.178;2024-02-26T07:31:06;55.40;;;26.10;;
41101;SDS011;26845;50.190;19.178;2024-02-26T07:33:46;51.30;;;24.30;;
41101;SDS011;26845;50.190;19.178;2024-02-26T07:36:26;48.10;;;23.40;;
41101;SDS011;26845;50.190;19.178;2024-02-26T07:39:06;55.50;;;24.60;;
41101;SDS011;26845;50.190;19.178;2024-02-26T07:41:46;52.20;;;24.50;;
41101;SDS011;26845;50.190;19.178;2024-02-26T07:44:26;57.90;;;31.20;;
41101;SDS011;26845;50.190;19.178;2024-02-26T07:47:06;63.70;;;30.90;;
41101;SDS011;26845;50.190;19.178;2024-02-26T07:49:46;51.30;;;25.30;;
41101;SDS011;26845;50.190;19.178;2024-02-26T07:52:26;53.80;;;30.80;;
41101;SDS011;26845;50.190;19.178;2024-02-26T07:55:06;73.70;;;40.90;;
41101;SDS011;26845;50.190;19.178;2024-02-26T07:57:46;64.00;;;37.50;;
41101;SDS011;26845;50.190;19.178;2024-02-26T08:00:26;86.60;;;47.30;;
41101;SDS011;26845;50.190;19.178;2024-02-26T08:03:06;71.70;;;39.30;;
41101;SDS011;26845;50.190;19.178;2024-02-26T08:05:46;62.90;;;38.80;;
41101;SDS011;26845;50.190;19.178;2024-02-26T08:08:26;197.60;;;96.60;;
41101;SDS011;26845;50.190;19.178;2024-02-26T08:11:06;69.70;;;38.80;;
41101;SDS011;26845;50.190;19.178;2024-02-26T08:13:46;65.20;;;37.60;;
41101;SDS011;26845;50.190;19.178;2024-02-26T08:16:27;59.90;;;33.10;;
41101;SDS011;26845;50.190;19.178;2024-02-26T08:19:07;87.80;;;39.90;;
41101;SDS011;26845;50.190;19.178;2024-02-26T08:21:48;108.20;;;44.90;;
41101;SDS011;26845;50.190;19.178;2024-02-26T08:24:28;46.90;;;23.70;;
41101;SDS011;26845;50.190;19.178;2024-02-26T08:27:08;38.20;;;20.00;;
41101;SDS011;26845;50.190;19.178;2024-02-26T08:29:48;32.90;;;17.90;;
41101;SDS011;26845;50.190;19.178;2024-02-26T08:32:28;31.30;;;16.80;;
41101;SDS011;26845;50.190;19.178;2024-02-26T08:35:08;26.50;;;14.20;;
41101;SDS011;26845;50.190;19.178;2024-02-26T08:37:48;35.20;;;22.20;;
41101;SDS011;26845;50.190;19.178;2024-02-26T08:40:29;24.20;;;13.70;;
41101;SDS011;26845;50.190;19.178;2024-02-26T08:43:08;20.50;;;11.40;;
41101;SDS011;26845;50.190;19.178;2024-02-26T08:45:48;22.30;;;11.20;;
41101;SDS011;26845;50.190;19.178;2024-02-26T08:48:29;14.90;;;8.50;;
41101;SDS011;26845;50.190;19.178;2024-02-26T08:51:09;12.90;;;7.70;;
41101;SDS011;26845;50.190;19.178;2024-02-26T08:53:49;11.50;;;7.00;;
41101;SDS011;26845;50.190;19.178;2024-02-26T08:56:29;10.70;;;6.90;;
41101;SDS011;26845;50.190;19.178;2024-02-26T08:59:09;14.10;;;7.20;;
41101;SDS011;26845;50.190;19.178;2024-02-26T09:01:49;10.80;;;6.60;;
41101;SDS011;26845;50.190;19.178;2024-02-26T09:04:29;11.40;;;6.90;;
41101;SDS011;26845;50.190;19.178;2024-02-26T09:07:09;8.90;;;5.60;;
41101;SDS011;26845;50.190;19.178;2024-02-26T09:09:49;10.60;;;6.20;;
41101;SDS011;26845;50.190;19.178;2024-02-26T09:12:29;10.50;;;6.30;;
41101;SDS011;26845;50.190;19.178;2024-02-26T09:15:09;11.90;;;6.40;;
41101;SDS011;26845;50.190;19.178;2024-02-26T09:17:49;13.20;;;8.00;;
41101;SDS011;26845;50.190;19.178;2024-02-26T09:20:29;13.90;;;8.10;;
41101;SDS011;26845;50.190;19.178;2024-02-26T09:23:09;13.20;;;6.80;;
41101;SDS011;26845;50.190;19.178;2024-02-26T09:25:49;11.50;;;5.70;;
41101;SDS011;26845;50.190;19.178;2024-02-26T09:28:29;7.10;;;4.40;;
41101;SDS011;26845;50.190;19.178;2024-02-26T09:31:09;7.80;;;4.30;;
41101;SDS011;26845;50.190;19.178;2024-02-26T09:33:49;8.40;;;4.30;;
41101;SDS011;26845;50.190;19.178;2024-02-26T09:36:29;11.10;;;4.40;;
41101;SDS011;26845;50.190;19.178;2024-02-26T09:39:09;6.00;;;4.40;;
41101;SDS011;26845;50.190;19.178;2024-02-26T09:41:49;7.10;;;4.00;;
41101;SDS011;26845;50.190;19.178;2024-02-26T09:44:29;7.60;;;4.00;;
41101;SDS011;26845;50.190;19.178;2024-02-26T09:47:10;7.10;;;3.90;;
41101;SDS011;26845;50.190;19.178;2024-02-26T09:49:49;6.30;;;4.10;;
41101;SDS011;26845;50.190;19.178;2024-02-26T09:52:29;6.40;;;3.20;;
41101;SDS011;26845;50.190;19.178;2024-02-26T09:55:09;4.90;;;3.00;;
41101;SDS011;26845;50.190;19.178;2024-02-26T09:57:49;5.20;;;2.70;;
41101;SDS011;26845;50.190;19.178;2024-02-26T10:00:30;4.20;;;3.20;;
41101;SDS011;26845;50.190;19.178;2024-02-26T10:03:09;4.70;;;2.70;;
41101;SDS011;26845;50.190;19.178;2024-02-26T10:05:49;4.20;;;2.30;;
41101;SDS011;26845;50.190;19.178;2024-02-26T10:08:29;4.20;;;2.90;;
41101;SDS011;26845;50.190;19.178;2024-02-26T10:11:12;6.80;;;4.80;;
41101;SDS011;26845;50.190;19.178;2024-02-26T10:13:49;9.70;;;4.70;;
41101;SDS011;26845;50.190;19.178;2024-02-26T10:16:29;4.90;;;3.30;;
41101;SDS011;26845;50.190;19.178;2024-02-26T10:19:09;4.00;;;2.90;;
41101;SDS011;26845;50.190;19.178;2024-02-26T10:21:52;5.50;;;2.40;;
41101;SDS011;26845;50.190;19.178;2024-02-26T10:24:31;4.90;;;2.60;;
41101;SDS011;26845;50.190;19.178;2024-02-26T10:27:11;4.00;;;2.90;;
41101;SDS011;26845;50.190;19.178;2024-02-26T10:29:51;3.90;;;2.70;;
41101;SDS011;26845;50.190;19.178;2024-02-26T10:32:32;7.00;;;3.10;;
41101;SDS011;26845;50.190;19.178;2024-02-26T10:35:11;3.00;;;2.20;;
41101;SDS011;26845;50.190;19.178;2024-02-26T10:37:51;3.50;;;2.10;;
41101;SDS011;26845;50.190;19.178;2024-02-26T10:40:31;3.90;;;2.40;;
41101;SDS011;26845;50.190;19.178;2024-02-26T10:43:11;4.40;;;2.30;;
41101;SDS011;26845;50.190;19.178;2024-02-26T10:45:51;2.10;;;1.90;;
41101;SDS011;26845;50.190;19.178;2024-02-26T10:48:31;3.30;;;1.90;;
41101;SDS011;26845;50.190;19.178;2024-02-26T10:51:11;5.00;;;1.80;;
41101;SDS011;26845;50.190;19.178;2024-02-26T10:53:51;3.20;;;2.00;;
41101;SDS011;26845;50.190;19.178;2024-02-26T10:56:32;2.90;;;1.70;;
41101;SDS011;26845;50.190;19.178;2024-02-26T10:59:11;1.90;;;1.40;;
41101;SDS011;26845;50.190;19.178;2024-02-26T11:01:51;2.00;;;1.40;;
41101;SDS011;26845;50.190;19.178;2024-02-26T11:04:31;2.60;;;1.90;;
41101;SDS011;26845;50.190;19.178;2024-02-26T11:07:11;1.70;;;1.60;;
41101;SDS011;26845;50.190;19.178;2024-02-26T11:09:51;2.20;;;1.60;;
41101;SDS011;26845;50.190;19.178;2024-02-26T11:12:31;3.00;;;1.70;;
41101;SDS011;26845;50.190;19.178;2024-02-26T11:15:11;3.80;;;1.80;;
41101;SDS011;26845;50.190;19.178;2024-02-26T11:17:52;2.90;;;1.90;;
41101;SDS011;26845;50.190;19.178;2024-02-26T11:20:31;2.70;;;1.50;;
41101;SDS011;26845;50.190;19.178;2024-02-26T11:23:11;1.50;;;1.40;;
41101;SDS011;26845;50.190;19.178;2024-02-26T11:25:52;2.00;;;1.40;;
41101;SDS011;26845;50.190;19.178;2024-02-26T11:28:31;3.60;;;1.70;;
41101;SDS011;26845;50.190;19.178;2024-02-26T11:31:11;2.80;;;1.40;;
41101;SDS011;26845;50.190;19.178;2024-02-26T11:33:51;3.20;;;2.20;;
41101;SDS011;26845;50.190;19.178;2024-02-26T11:36:31;3.10;;;1.70;;
41101;SDS011;26845;50.190;19.178;2024-02-26T11:39:11;2.80;;;2.20;;
41101;SDS011;26845;50.190;19.178;2024-02-26T11:41:51;1.80;;;1.40;;
41101;SDS011;26845;50.190;19.178;2024-02-26T11:44:31;2.60;;;2.10;;
41101;SDS011;26845;50.190;19.178;2024-02-26T11:47:21;3.20;;;1.80;;
41101;SDS011;26845;50.190;19.178;2024-02-26T11:50:00;1.90;;;1.50;;
41101;SDS011;26845;50.190;19.178;2024-02-26T11:52:40;1.90;;;1.70;;
41101;SDS011;26845;50.190;19.178;2024-02-26T11:55:31;3.40;;;1.90;;
41101;SDS011;26845;50.190;19.178;2024-02-26T11:58:00;3.30;;;2.30;;
41101;SDS011;26845;50.190;19.178;2024-02-26T12:00:40;4.40;;;1.80;;
41101;SDS011;26845;50.190;19.178;2024-02-26T12:03:20;4.00;;;2.20;;
41101;SDS011;26845;50.190;19.178;2024-02-26T12:06:00;5.00;;;2.00;;
41101;SDS011;26845;50.190;19.178;2024-02-26T12:08:40;5.70;;;1.90;;
41101;SDS011;26845;50.190;19.178;2024-02-26T12:11:20;2.30;;;1.80;;
41101;SDS011;26845;50.190;19.178;2024-02-26T12:14:00;3.80;;;1.90;;
41101;SDS011;26845;50.190;19.178;2024-02-26T12:16:40;4.10;;;3.00;;
41101;SDS011;26845;50.190;19.178;2024-02-26T12:19:20;4.10;;;2.40;;
41101;SDS011;26845;50.190;19.178;2024-02-26T12:22:00;3.30;;;2.60;;
41101;SDS011;26845;50.190;19.178;2024-02-26T12:24:40;3.20;;;2.30;;
41101;SDS011;26845;50.190;19.178;2024-02-26T12:27:20;3.40;;;2.20;;
41101;SDS011;26845;50.190;19.178;2024-02-26T12:30:00;6.40;;;2.30;;
41101;SDS011;26845;50.190;19.178;2024-02-26T12:32:40;3.90;;;2.40;;
41101;SDS011;26845;50.190;19.178;2024-02-26T12:35:20;4.70;;;2.10;;
41101;SDS011;26845;50.190;19.178;2024-02-26T12:38:00;4.20;;;2.30;;
41101;SDS011;26845;50.190;19.178;2024-02-26T12:40:40;4.00;;;2.30;;
41101;SDS011;26845;50.190;19.178;2024-02-26T12:43:20;5.20;;;2.60;;
41101;SDS011;26845;50.190;19.178;2024-02-26T12:46:02;7.50;;;2.70;;
41101;SDS011;26845;50.190;19.178;2024-02-26T12:48:40;5.60;;;2.80;;
41101;SDS011;26845;50.190;19.178;2024-02-26T12:51:20;5.90;;;2.60;;
41101;SDS011;26845;50.190;19.178;2024-02-26T12:54:00;4.90;;;2.80;;
41101;SDS011;26845;50.190;19.178;2024-02-26T12:56:40;4.10;;;2.40;;
41101;SDS011;26845;50.190;19.178;2024-02-26T12:59:20;4.50;;;2.70;;
41101;SDS011;26845;50.190;19.178;2024-02-26T13:02:00;5.60;;;2.90;;
41101;SDS011;26845;50.190;19.178;2024-02-26T13:04:40;5.40;;;3.00;;
41101;SDS011;26845;50.190;19.178;2024-02-26T13:07:20;7.60;;;3.20;;
41101;SDS011;26845;50.190;19.178;2024-02-26T13:10:00;5.60;;;3.60;;
41101;SDS011;26845;50.190;19.178;2024-02-26T13:12:44;5.00;;;3.40;;
41101;SDS011;26845;50.190;19.178;2024-02-26T13:15:23;4.90;;;3.30;;
41101;SDS011;26845;50.190;19.178;2024-02-26T13:18:13;6.40;;;3.40;;
41101;SDS011;26845;50.190;19.178;2024-02-26T13:20:53;5.90;;;3.10;;
41101;SDS011;26845;50.190;19.178;2024-02-26T13:23:33;9.90;;;4.00;;
41101;SDS011;26845;50.190;19.178;2024-02-26T13:26:13;5.70;;;3.00;;
41101;SDS011;26845;50.190;19.178;2024-02-26T13:29:02;10.80;;;3.70;;
41101;SDS011;26845;50.190;19.178;2024-02-26T13:31:39;5.60;;;3.60;;
41101;SDS011;26845;50.190;19.178;2024-02-26T13:34:29;5.20;;;3.70;;
41101;SDS011;26845;50.190;19.178;2024-02-26T13:37:12;5.80;;;3.50;;
41101;SDS011;26845;50.190;19.178;2024-02-26T13:39:52;9.50;;;3.40;;
41101;SDS011;26845;50.190;19.178;2024-02-26T13:42:32;7.80;;;3.80;;
41101;SDS011;26845;50.190;19.178;2024-02-26T13:45:12;8.20;;;3.70;;
41101;SDS011;26845;50.190;19.178;2024-02-26T13:47:52;6.30;;;3.80;;
41101;SDS011;26845;50.190;19.178;2024-02-26T13:50:32;6.10;;;3.60;;
41101;SDS011;26845;50.190;19.178;2024-02-26T13:53:12;6.10;;;3.90;;
41101;SDS011;26845;50.190;19.178;2024-02-26T13:55:52;5.50;;;3.10;;
41101;SDS011;26845;50.190;19.178;2024-02-26T13:58:32;6.70;;;3.90;;
41101;SDS011;26845;50.190;19.178;2024-02-26T14:01:12;9.90;;;3.90;;
41101;SDS011;26845;50.190;19.178;2024-02-26T14:03:52;4.80;;;3.30;;
41101;SDS011;26845;50.190;19.178;2024-02-26T14:06:32;5.60;;;3.70;;
41101;SDS011;26845;50.190;19.178;2024-02-26T14:09:12;5.70;;;3.20;;
41101;SDS011;26845;50.190;19.178;2024-02-26T14:11:52;4.70;;;2.90;;
41101;SDS011;26845;50.190;19.178;2024-02-26T14:14:32;5.30;;;3.20;;
41101;SDS011;26845;50.190;19.178;2024-02-26T14:17:12;3.50;;;2.80;;
41101;SDS011;26845;50.190;19.178;2024-02-26T14:19:52;5.60;;;3.20;;
41101;SDS011;26845;50.190;19.178;2024-02-26T14:22:32;3.60;;;2.60;;
41101;SDS011;26845;50.190;19.178;2024-02-26T14:25:12;3.60;;;3.00;;
41101;SDS011;26845;50.190;19.178;2024-02-26T14:27:52;4.90;;;3.50;;
41101;SDS011;26845;50.190;19.178;2024-02-26T14:30:32;4.90;;;3.40;;
41101;SDS011;26845;50.190;19.178;2024-02-26T14:33:12;5.50;;;3.60;;
41101;SDS011;26845;50.190;19.178;2024-02-26T14:35:52;3.40;;;2.80;;
41101;SDS011;26845;50.190;19.178;2024-02-26T14:38:32;4.80;;;3.60;;
41101;SDS011;26845;50.190;19.178;2024-02-26T14:41:12;4.50;;;3.40;;
41101;SDS011;26845;50.190;19.178;2024-02-26T14:43:52;4.40;;;3.20;;
41101;SDS011;26845;50.190;19.178;2024-02-26T14:46:32;6.60;;;3.30;;
41101;SDS011;26845;50.190;19.178;2024-02-26T14:49:12;5.10;;;3.20;;
41101;SDS011;26845;50.190;19.178;2024-02-26T14:51:52;4.70;;;3.30;;
41101;SDS011;26845;50.190;19.178;2024-02-26T14:54:32;4.50;;;3.50;;
41101;SDS011;26845;50.190;19.178;2024-02-26T14:57:12;5.50;;;3.80;;
41101;SDS011;26845;50.190;19.178;2024-02-26T14:59:52;6.20;;;3.50;;
41101;SDS011;26845;50.190;19.178;2024-02-26T15:02:32;4.30;;;3.10;;
41101;SDS011;26845;50.190;19.178;2024-02-26T15:05:12;4.30;;;3.40;;
41101;SDS011;26845;50.190;19.178;2024-02-26T15:07:52;9.10;;;3.80;;
41101;SDS011;26845;50.190;19.178;2024-02-26T15:10:32;5.50;;;3.70;;
41101;SDS011;26845;50.190;19.178;2024-02-26T15:13:12;4.70;;;3.80;;
41101;SDS011;26845;50.190;19.178;2024-02-26T15:15:52;7.20;;;3.80;;
41101;SDS011;26845;50.190;19.178;2024-02-26T15:18:32;6.40;;;3.80;;
41101;SDS011;26845;50.190;19.178;2024-02-26T15:21:12;6.60;;;3.60;;
41101;SDS011;26845;50.190;19.178;2024-02-26T15:23:52;7.60;;;4.10;;
41101;SDS011;26845;50.190;19.178;2024-02-26T15:26:32;6.80;;;4.10;;
41101;SDS011;26845;50.190;19.178;2024-02-26T15:29:12;9.40;;;4.60;;
41101;SDS011;26845;50.190;19.178;2024-02-26T15:31:52;9.60;;;4.70;;
41101;SDS011;26845;50.190;19.178;2024-02-26T15:34:32;10.40;;;4.20;;